sensor_id;sensor_type;location;lat;lon;timestamp;pressure;altitude;pressure_sealevel;temperature;humidity
58785;BME280;44557;51.862;19.378;2023-05-02T00:00:38;99076.62;;;12.88;46.33
58785;BME280;44557;51.862;19.378;2023-05-02T00:02:49;99073.84;;;12.78;46.31
58785;BME280;44557;51.862;19.378;2023-05-02T00:04:51;99076.67;;;12.82;46.36
58785;BME280;44557;51.862;19.378;2023-05-02T00:06:52;99075.95;;;12.85;46.67
58785;BME280;44557;51.862;19.378;2023-05-02T00:08:54;99070.77;;;12.78;46.64
58785;BME280;44557;51.862;19.378;2023-05-02T00:10:55;99071.42;;;12.83;46.95
58785;BME280;44557;51.862;19.378;2023-05-02T00:12:57;99066.88;;;12.86;46.79
58785;BME280;44557;51.862;19.378;2023-05-02T00:14:59;99065.34;;;12.79;47.12
58785;BME280;44557;51.862;19.378;2023-05-02T00:17:01;99064.30;;;12.65;47.52
58785;BME280;44557;51.862;19.378;2023-05-02T00:19:03;99061.38;;;12.61;47.90
58785;BME280;44557;51.862;19.378;2023-05-02T00:21:05;99059.23;;;12.68;47.95
58785;BME280;44557;51.862;19.378;2023-05-02T00:23:07;99062.79;;;12.78;47.69
58785;BME280;44557;51.862;19.378;2023-05-02T00:25:09;99058.36;;;12.72;47.94
58785;BME280;44557;51.862;19.378;2023-05-02T00:27:10;99057.58;;;12.92;47.46
58785;BME280;44557;51.862;19.378;2023-05-02T00:29:12;99061.43;;;12.81;47.61
58785;BME280;44557;51.862;19.378;2023-05-02T00:31:14;99059.58;;;12.75;48.09
58785;BME280;44557;51.862;19.378;2023-05-02T00:33:16;99055.15;;;12.74;48.03
58785;BME280;44557;51.862;19.378;2023-05-02T00:35:18;99055.20;;;12.69;48.11
58785;BME280;44557;51.862;19.378;2023-05-02T00:37:19;99050.39;;;12.77;48.23
58785;BME280;44557;51.862;19.378;2023-05-02T00:39:22;99053.04;;;12.67;48.58
58785;BME280;44557;51.862;19.378;2023-05-02T00:41:23;99048.61;;;12.62;48.86
58785;BME280;44557;51.862;19.378;2023-05-02T00:43:29;99045.65;;;12.82;48.40
58785;BME280;44557;51.862;19.378;2023-05-02T00:45:31;99037.66;;;12.72;48.99
58785;BME280;44557;51.862;19.378;2023-05-02T00:47:33;99039.59;;;12.78;48.52
58785;BME280;44557;51.862;19.378;2023-05-02T00:49:35;99037.48;;;12.62;49.15
58785;BME280;44557;51.862;19.378;2023-05-02T00:51:36;99036.41;;;12.73;48.99
58785;BME280;44557;51.862;19.378;2023-05-02T00:53:39;99037.89;;;12.64;49.34
58785;BME280;44557;51.862;19.378;2023-05-02T00:55:42;99034.52;;;12.61;49.41
58785;BME280;44557;51.862;19.378;2023-05-02T00:57:43;99031.41;;;12.64;49.57
58785;BME280;44557;51.862;19.378;2023-05-02T00:59:45;99027.67;;;12.62;49.98
58785;BME280;44557;51.862;19.378;2023-05-02T01:04:22;99023.23;;;12.56;49.90
58785;BME280;44557;51.862;19.378;2023-05-02T01:08:49;99019.68;;;12.69;49.87
58785;BME280;44557;51.862;19.378;2023-05-02T01:11:04;99019.62;;;12.70;49.63
58785;BME280;44557;51.862;19.378;2023-05-02T01:13:13;99017.25;;;12.61;50.24
58785;BME280;44557;51.862;19.378;2023-05-02T01:15:19;99014.52;;;12.63;50.27
58785;BME280;44557;51.862;19.378;2023-05-02T01:17:26;99012.63;;;12.64;50.27
58785;BME280;44557;51.862;19.378;2023-05-02T01:19:35;99012.19;;;12.56;50.20
58785;BME280;44557;51.862;19.378;2023-05-02T01:21:39;99012.92;;;12.45;50.67
58785;BME280;44557;51.862;19.378;2023-05-02T01:26:16;99002.70;;;12.42;51.16
58785;BME280;44557;51.862;19.378;2023-05-02T01:28:57;99003.34;;;12.48;51.09
58785;BME280;44557;51.862;19.378;2023-05-02T01:31:01;99002.09;;;12.53;50.76
58785;BME280;44557;51.862;19.378;2023-05-02T01:33:04;99004.05;;;12.48;51.13
58785;BME280;44557;51.862;19.378;2023-05-02T01:35:08;98999.33;;;12.44;51.22
58785;BME280;44557;51.862;19.378;2023-05-02T01:37:11;99003.04;;;12.35;51.77
58785;BME280;44557;51.862;19.378;2023-05-02T01:39:18;98999.79;;;12.22;52.39
58785;BME280;44557;51.862;19.378;2023-05-02T01:41:22;98995.23;;;12.19;52.42
58785;BME280;44557;51.862;19.378;2023-05-02T01:43:26;98993.87;;;12.26;52.23
58785;BME280;44557;51.862;19.378;2023-05-02T01:45:28;98992.86;;;12.19;52.64
58785;BME280;44557;51.862;19.378;2023-05-02T01:47:33;98993.27;;;12.24;52.58
58785;BME280;44557;51.862;19.378;2023-05-02T01:49:36;98985.75;;;12.27;52.32
58785;BME280;44557;51.862;19.378;2023-05-02T01:51:47;98984.13;;;12.33;52.61
58785;BME280;44557;51.862;19.378;2023-05-02T01:53:50;98984.43;;;12.19;52.67
58785;BME280;44557;51.862;19.378;2023-05-02T01:55:53;98980.94;;;12.22;52.97
58785;BME280;44557;51.862;19.378;2023-05-02T01:57:56;98978.09;;;12.30;52.90
58785;BME280;44557;51.862;19.378;2023-05-02T01:59:58;98974.58;;;12.24;53.09
58785;BME280;44557;51.862;19.378;2023-05-02T02:02:01;98975.29;;;12.29;53.02
58785;BME280;44557;51.862;19.378;2023-05-02T02:04:07;98970.89;;;12.30;52.94
58785;BME280;44557;51.862;19.378;2023-05-02T02:06:10;98969.93;;;12.25;53.27
58785;BME280;44557;51.862;19.378;2023-05-02T02:08:13;98969.39;;;12.31;53.22
58785;BME280;44557;51.862;19.378;2023-05-02T02:10:14;98967.16;;;12.20;53.52
58785;BME280;44557;51.862;19.378;2023-05-02T02:12:24;98967.05;;;12.14;53.86
58785;BME280;44557;51.862;19.378;2023-05-02T02:14:33;98962.95;;;12.32;53.62
58785;BME280;44557;51.862;19.378;2023-05-02T02:16:37;98967.77;;;12.28;53.62
58785;BME280;44557;51.862;19.378;2023-05-02T02:18:43;98966.45;;;12.24;53.72
58785;BME280;44557;51.862;19.378;2023-05-02T02:20:47;98966.31;;;12.17;53.99
58785;BME280;44557;51.862;19.378;2023-05-02T02:22:52;98966.39;;;12.16;54.50
58785;BME280;44557;51.862;19.378;2023-05-02T02:24:54;98965.02;;;12.15;54.36
58785;BME280;44557;51.862;19.378;2023-05-02T02:26:57;98963.51;;;12.23;54.41
58785;BME280;44557;51.862;19.378;2023-05-02T02:29:00;98965.77;;;12.30;54.12
58785;BME280;44557;51.862;19.378;2023-05-02T02:31:01;98964.70;;;12.23;54.48
58785;BME280;44557;51.862;19.378;2023-05-02T02:33:03;98966.52;;;12.11;54.97
58785;BME280;44557;51.862;19.378;2023-05-02T02:35:05;98969.30;;;12.20;54.68
58785;BME280;44557;51.862;19.378;2023-05-02T02:37:16;98967.96;;;12.30;54.67
58785;BME280;44557;51.862;19.378;2023-05-02T02:39:40;98962.56;;;12.31;54.52
58785;BME280;44557;51.862;19.378;2023-05-02T02:41:54;98970.98;;;12.18;55.00
58785;BME280;44557;51.862;19.378;2023-05-02T02:46:18;98969.40;;;12.21;54.95
58785;BME280;44557;51.862;19.378;2023-05-02T02:48:34;98964.76;;;12.14;55.57
58785;BME280;44557;51.862;19.378;2023-05-02T02:51:06;98966.92;;;12.24;55.28
58785;BME280;44557;51.862;19.378;2023-05-02T02:53:16;98963.02;;;12.18;55.59
58785;BME280;44557;51.862;19.378;2023-05-02T02:58:53;98964.80;;;12.11;56.14
58785;BME280;44557;51.862;19.378;2023-05-02T03:00:52;98964.34;;;12.13;56.22
58785;BME280;44557;51.862;19.378;2023-05-02T03:02:54;98962.74;;;12.07;56.51
58785;BME280;44557;51.862;19.378;2023-05-02T03:04:57;98962.59;;;12.15;56.70
58785;BME280;44557;51.862;19.378;2023-05-02T03:07:00;98961.36;;;12.22;56.40
58785;BME280;44557;51.862;19.378;2023-05-02T03:09:02;98963.59;;;12.27;56.47
58785;BME280;44557;51.862;19.378;2023-05-02T03:11:04;98964.20;;;12.22;56.57
58785;BME280;44557;51.862;19.378;2023-05-02T03:13:06;98962.14;;;12.22;56.89
58785;BME280;44557;51.862;19.378;2023-05-02T03:15:24;98961.70;;;12.14;57.18
58785;BME280;44557;51.862;19.378;2023-05-02T03:17:33;98960.29;;;12.19;57.17
58785;BME280;44557;51.862;19.378;2023-05-02T03:19:35;98964.04;;;12.09;57.36
58785;BME280;44557;51.862;19.378;2023-05-02T03:21:37;98963.20;;;12.03;58.13
58785;BME280;44557;51.862;19.378;2023-05-02T03:23:39;98962.48;;;12.06;58.04
58785;BME280;44557;51.862;19.378;2023-05-02T03:25:40;98960.64;;;12.00;58.48
58785;BME280;44557;51.862;19.378;2023-05-02T03:27:43;98961.81;;;12.08;58.24
58785;BME280;44557;51.862;19.378;2023-05-02T03:29:44;98959.49;;;12.02;58.69
58785;BME280;44557;51.862;19.378;2023-05-02T03:31:46;98959.15;;;12.05;58.77
58785;BME280;44557;51.862;19.378;2023-05-02T03:33:49;98960.77;;;12.07;58.86
58785;BME280;44557;51.862;19.378;2023-05-02T03:35:50;98963.52;;;12.11;58.88
58785;BME280;44557;51.862;19.378;2023-05-02T03:37:52;98965.70;;;12.04;59.16
58785;BME280;44557;51.862;19.378;2023-05-02T03:39:54;98962.23;;;12.01;59.42
58785;BME280;44557;51.862;19.378;2023-05-02T03:41:55;98966.53;;;12.07;59.29
58785;BME280;44557;51.862;19.378;2023-05-02T03:43:57;98966.94;;;12.12;59.25
58785;BME280;44557;51.862;19.378;2023-05-02T03:46:04;98967.88;;;12.16;59.19
58785;BME280;44557;51.862;19.378;2023-05-02T03:48:08;98964.39;;;12.15;59.33
58785;BME280;44557;51.862;19.378;2023-05-02T03:50:09;98965.41;;;12.06;59.85
58785;BME280;44557;51.862;19.378;2023-05-02T03:52:11;98969.05;;;12.03;60.01
58785;BME280;44557;51.862;19.378;2023-05-02T03:54:13;98971.38;;;12.14;59.72
58785;BME280;44557;51.862;19.378;2023-05-02T03:56:18;98970.54;;;12.15;59.88
58785;BME280;44557;51.862;19.378;2023-05-02T03:58:20;98970.70;;;12.19;59.72
58785;BME280;44557;51.862;19.378;2023-05-02T04:00:22;98970.02;;;12.13;60.17
58785;BME280;44557;51.862;19.378;2023-05-02T04:02:24;98972.23;;;12.12;60.28
58785;BME280;44557;51.862;19.378;2023-05-02T04:04:26;98973.22;;;12.15;60.74
58785;BME280;44557;51.862;19.378;2023-05-02T04:06:28;98976.65;;;12.21;60.17
58785;BME280;44557;51.862;19.378;2023-05-02T04:08:29;98978.41;;;12.18;60.69
58785;BME280;44557;51.862;19.378;2023-05-02T04:10:31;98978.65;;;12.14;60.73
58785;BME280;44557;51.862;19.378;2023-05-02T04:12:32;98975.91;;;12.19;60.87
58785;BME280;44557;51.862;19.378;2023-05-02T04:14:34;98974.14;;;12.31;60.60
58785;BME280;44557;51.862;19.378;2023-05-02T04:16:36;98978.52;;;12.25;60.96
58785;BME280;44557;51.862;19.378;2023-05-02T04:18:38;98974.91;;;12.21;60.98
58785;BME280;44557;51.862;19.378;2023-05-02T04:20:42;98980.61;;;12.26;60.94
58785;BME280;44557;51.862;19.378;2023-05-02T04:22:45;98980.34;;;12.20;61.40
58785;BME280;44557;51.862;19.378;2023-05-02T04:24:48;98980.98;;;12.25;61.31
58785;BME280;44557;51.862;19.378;2023-05-02T04:26:49;98980.47;;;12.19;61.43
58785;BME280;44557;51.862;19.378;2023-05-02T04:28:51;98985.34;;;12.22;61.47
58785;BME280;44557;51.862;19.378;2023-05-02T04:30:53;98981.76;;;12.28;61.56
58785;BME280;44557;51.862;19.378;2023-05-02T04:32:55;98983.03;;;12.24;61.87
58785;BME280;44557;51.862;19.378;2023-05-02T04:34:57;98983.91;;;12.21;61.84
58785;BME280;44557;51.862;19.378;2023-05-02T04:37:00;98985.14;;;12.19;62.05
58785;BME280;44557;51.862;19.378;2023-05-02T04:39:02;98985.34;;;12.30;61.85
58785;BME280;44557;51.862;19.378;2023-05-02T04:41:05;98986.85;;;12.34;61.99
58785;BME280;44557;51.862;19.378;2023-05-02T04:43:07;98989.72;;;12.44;61.65
58785;BME280;44557;51.862;19.378;2023-05-02T04:45:09;98992.20;;;12.43;61.76
58785;BME280;44557;51.862;19.378;2023-05-02T04:47:10;98993.43;;;12.41;62.03
58785;BME280;44557;51.862;19.378;2023-05-02T04:49:12;98993.41;;;12.53;61.89
58785;BME280;44557;51.862;19.378;2023-05-02T04:51:14;98995.69;;;12.57;61.71
58785;BME280;44557;51.862;19.378;2023-05-02T04:53:15;98996.90;;;12.62;61.60
58785;BME280;44557;51.862;19.378;2023-05-02T04:55:17;98996.27;;;12.67;61.98
58785;BME280;44557;51.862;19.378;2023-05-02T04:57:19;98998.14;;;12.61;62.00
58785;BME280;44557;51.862;19.378;2023-05-02T04:59:20;99001.02;;;12.59;62.28
58785;BME280;44557;51.862;19.378;2023-05-02T05:01:23;99000.31;;;12.59;62.69
58785;BME280;44557;51.862;19.378;2023-05-02T05:03:25;99003.57;;;12.61;62.71
58785;BME280;44557;51.862;19.378;2023-05-02T05:05:26;99008.84;;;12.59;62.70
58785;BME280;44557;51.862;19.378;2023-05-02T05:07:28;99006.84;;;12.66;62.95
58785;BME280;44557;51.862;19.378;2023-05-02T05:09:30;99005.59;;;12.86;62.10
58785;BME280;44557;51.862;19.378;2023-05-02T05:11:32;99010.40;;;12.85;62.54
58785;BME280;44557;51.862;19.378;2023-05-02T05:13:33;99004.79;;;12.80;62.53
58785;BME280;44557;51.862;19.378;2023-05-02T05:15:35;99009.98;;;12.95;62.78
58785;BME280;44557;51.862;19.378;2023-05-02T05:17:37;99008.45;;;13.01;62.36
58785;BME280;44557;51.862;19.378;2023-05-02T05:19:39;99006.44;;;13.08;62.08
58785;BME280;44557;51.862;19.378;2023-05-02T05:21:41;99009.70;;;13.19;62.58
58785;BME280;44557;51.862;19.378;2023-05-02T05:23:42;99008.93;;;13.26;62.36
58785;BME280;44557;51.862;19.378;2023-05-02T05:25:46;99009.23;;;13.30;62.18
58785;BME280;44557;51.862;19.378;2023-05-02T05:27:48;99008.83;;;13.40;62.18
58785;BME280;44557;51.862;19.378;2023-05-02T05:29:49;99010.41;;;13.35;62.25
58785;BME280;44557;51.862;19.378;2023-05-02T05:31:51;99010.44;;;13.42;62.32
58785;BME280;44557;51.862;19.378;2023-05-02T05:33:53;99012.95;;;13.58;61.92
58785;BME280;44557;51.862;19.378;2023-05-02T05:35:54;99015.29;;;13.61;61.87
58785;BME280;44557;51.862;19.378;2023-05-02T05:37:57;99019.21;;;13.64;61.85
58785;BME280;44557;51.862;19.378;2023-05-02T05:39:59;99018.95;;;13.74;61.67
58785;BME280;44557;51.862;19.378;2023-05-02T05:42:00;99019.15;;;13.78;61.42
58785;BME280;44557;51.862;19.378;2023-05-02T05:44:03;99018.61;;;13.78;61.49
58785;BME280;44557;51.862;19.378;2023-05-02T05:46:04;99022.96;;;13.79;61.51
58785;BME280;44557;51.862;19.378;2023-05-02T05:48:06;99026.03;;;13.89;60.98
58785;BME280;44557;51.862;19.378;2023-05-02T05:50:08;99020.45;;;13.94;61.41
58785;BME280;44557;51.862;19.378;2023-05-02T05:52:09;99022.40;;;14.09;61.03
58785;BME280;44557;51.862;19.378;2023-05-02T05:54:11;99024.13;;;14.16;60.61
58785;BME280;44557;51.862;19.378;2023-05-02T05:56:13;99022.44;;;14.25;60.35
58785;BME280;44557;51.862;19.378;2023-05-02T05:58:15;99022.95;;;14.35;60.49
58785;BME280;44557;51.862;19.378;2023-05-02T06:00:17;99023.61;;;14.52;60.26
58785;BME280;44557;51.862;19.378;2023-05-02T06:02:19;99019.41;;;14.51;60.06
58785;BME280;44557;51.862;19.378;2023-05-02T06:04:20;99021.77;;;14.73;59.84
58785;BME280;44557;51.862;19.378;2023-05-02T06:06:22;99022.30;;;14.80;59.64
58785;BME280;44557;51.862;19.378;2023-05-02T06:08:24;99019.33;;;14.84;59.40
58785;BME280;44557;51.862;19.378;2023-05-02T06:10:26;99023.77;;;15.12;59.14
58785;BME280;44557;51.862;19.378;2023-05-02T06:12:27;99025.16;;;15.08;59.03
58785;BME280;44557;51.862;19.378;2023-05-02T06:14:29;99024.98;;;15.05;58.98
58785;BME280;44557;51.862;19.378;2023-05-02T06:16:31;99026.34;;;15.17;58.86
58785;BME280;44557;51.862;19.378;2023-05-02T06:18:32;99028.86;;;15.06;58.91
58785;BME280;44557;51.862;19.378;2023-05-02T06:20:35;99030.85;;;15.15;59.01
58785;BME280;44557;51.862;19.378;2023-05-02T06:22:37;99035.98;;;15.24;58.94
58785;BME280;44557;51.862;19.378;2023-05-02T06:24:39;99039.00;;;15.25;58.65
58785;BME280;44557;51.862;19.378;2023-05-02T06:26:41;99040.42;;;15.33;58.89
58785;BME280;44557;51.862;19.378;2023-05-02T06:28:46;99043.52;;;15.65;58.56
58785;BME280;44557;51.862;19.378;2023-05-02T06:30:58;99041.91;;;15.76;58.07
58785;BME280;44557;51.862;19.378;2023-05-02T06:33:04;99042.49;;;15.82;58.46
58785;BME280;44557;51.862;19.378;2023-05-02T06:35:06;99048.20;;;15.79;58.56
58785;BME280;44557;51.862;19.378;2023-05-02T06:37:08;99050.30;;;15.74;58.31
58785;BME280;44557;51.862;19.378;2023-05-02T06:39:09;99050.91;;;15.83;57.94
58785;BME280;44557;51.862;19.378;2023-05-02T06:41:12;99055.01;;;15.91;57.65
58785;BME280;44557;51.862;19.378;2023-05-02T06:43:15;99058.67;;;15.94;58.25
58785;BME280;44557;51.862;19.378;2023-05-02T06:45:17;99059.04;;;16.04;58.34
58785;BME280;44557;51.862;19.378;2023-05-02T06:47:19;99060.23;;;16.04;58.34
58785;BME280;44557;51.862;19.378;2023-05-02T06:49:21;99063.55;;;15.86;59.40
58785;BME280;44557;51.862;19.378;2023-05-02T06:51:23;99064.70;;;15.77;59.28
58785;BME280;44557;51.862;19.378;2023-05-02T06:53:24;99064.95;;;15.69;59.45
58785;BME280;44557;51.862;19.378;2023-05-02T06:55:26;99068.50;;;15.91;59.39
58785;BME280;44557;51.862;19.378;2023-05-02T06:57:28;99065.20;;;16.35;58.59
58785;BME280;44557;51.862;19.378;2023-05-02T06:59:29;99063.95;;;16.58;57.40
58785;BME280;44557;51.862;19.378;2023-05-02T07:01:31;99066.00;;;16.52;57.71
58785;BME280;44557;51.862;19.378;2023-05-02T07:03:32;99066.99;;;16.70;57.48
58785;BME280;44557;51.862;19.378;2023-05-02T07:05:35;99072.83;;;16.81;57.67
58785;BME280;44557;51.862;19.378;2023-05-02T07:07:36;99074.73;;;16.90;57.55
58785;BME280;44557;51.862;19.378;2023-05-02T07:09:38;99080.08;;;17.00;57.47
58785;BME280;44557;51.862;19.378;2023-05-02T07:11:39;99080.02;;;17.11;58.21
58785;BME280;44557;51.862;19.378;2023-05-02T07:13:41;99083.23;;;16.83;58.42
58785;BME280;44557;51.862;19.378;2023-05-02T07:15:43;99084.83;;;16.84;57.99
58785;BME280;44557;51.862;19.378;2023-05-02T07:17:45;99083.39;;;16.80;57.71
58785;BME280;44557;51.862;19.378;2023-05-02T07:19:48;99096.20;;;16.56;58.62
58785;BME280;44557;51.862;19.378;2023-05-02T07:21:49;99106.14;;;16.55;59.05
58785;BME280;44557;51.862;19.378;2023-05-02T07:23:51;99109.13;;;16.70;58.89
58785;BME280;44557;51.862;19.378;2023-05-02T07:25:52;99109.17;;;16.61;58.60
58785;BME280;44557;51.862;19.378;2023-05-02T07:27:54;99110.08;;;16.67;59.39
58785;BME280;44557;51.862;19.378;2023-05-02T07:29:56;99108.82;;;16.73;59.41
58785;BME280;44557;51.862;19.378;2023-05-02T07:31:57;99115.26;;;16.78;60.43
58785;BME280;44557;51.862;19.378;2023-05-02T07:33:59;99119.27;;;16.91;60.15
58785;BME280;44557;51.862;19.378;2023-05-02T07:36:01;99122.31;;;17.00;59.43
58785;BME280;44557;51.862;19.378;2023-05-02T07:38:03;99122.84;;;16.85;59.60
58785;BME280;44557;51.862;19.378;2023-05-02T07:40:05;99125.70;;;16.61;60.27
58785;BME280;44557;51.862;19.378;2023-05-02T07:42:08;99128.92;;;16.52;61.56
58785;BME280;44557;51.862;19.378;2023-05-02T07:44:10;99133.41;;;16.46;62.01
58785;BME280;44557;51.862;19.378;2023-05-02T07:46:12;99133.91;;;16.68;62.81
58785;BME280;44557;51.862;19.378;2023-05-02T07:48:14;99135.45;;;17.08;66.72
58785;BME280;44557;51.862;19.378;2023-05-02T07:50:16;99138.45;;;16.71;62.27
58785;BME280;44557;51.862;19.378;2023-05-02T07:52:19;99141.88;;;16.54;63.56
58785;BME280;44557;51.862;19.378;2023-05-02T07:54:21;99143.34;;;16.87;64.65
58785;BME280;44557;51.862;19.378;2023-05-02T07:56:26;99152.09;;;16.48;62.09
58785;BME280;44557;51.862;19.378;2023-05-02T07:58:28;99155.98;;;16.19;62.49
58785;BME280;44557;51.862;19.378;2023-05-02T08:00:31;99157.11;;;16.21;62.96
58785;BME280;44557;51.862;19.378;2023-05-02T08:02:32;99165.14;;;16.22;62.71
58785;BME280;44557;51.862;19.378;2023-05-02T08:04:34;99164.91;;;16.10;63.18
58785;BME280;44557;51.862;19.378;2023-05-02T08:06:36;99163.85;;;16.05;62.99
58785;BME280;44557;51.862;19.378;2023-05-02T08:08:38;99162.73;;;15.92;62.85
58785;BME280;44557;51.862;19.378;2023-05-02T08:10:39;99168.56;;;15.86;63.31
58785;BME280;44557;51.862;19.378;2023-05-02T08:12:41;99171.34;;;15.96;63.03
58785;BME280;44557;51.862;19.378;2023-05-02T08:14:43;99173.67;;;15.92;61.98
58785;BME280;44557;51.862;19.378;2023-05-02T08:16:44;99175.66;;;15.81;62.04
58785;BME280;44557;51.862;19.378;2023-05-02T08:18:46;99178.83;;;15.81;62.15
58785;BME280;44557;51.862;19.378;2023-05-02T08:20:48;99184.65;;;15.83;62.14
58785;BME280;44557;51.862;19.378;2023-05-02T08:22:51;99186.76;;;15.88;61.62
58785;BME280;44557;51.862;19.378;2023-05-02T08:24:52;99193.25;;;15.87;62.65
58785;BME280;44557;51.862;19.378;2023-05-02T08:26:54;99192.30;;;15.87;62.23
58785;BME280;44557;51.862;19.378;2023-05-02T08:28:55;99196.46;;;15.81;61.64
58785;BME280;44557;51.862;19.378;2023-05-02T08:30:57;99198.48;;;15.86;61.38
58785;BME280;44557;51.862;19.378;2023-05-02T08:32:59;99201.54;;;15.82;61.82
58785;BME280;44557;51.862;19.378;2023-05-02T08:35:00;99202.70;;;15.80;62.20
58785;BME280;44557;51.862;19.378;2023-05-02T08:37:09;99204.54;;;15.90;62.88
58785;BME280;44557;51.862;19.378;2023-05-02T08:39:10;99202.90;;;15.94;62.99
58785;BME280;44557;51.862;19.378;2023-05-02T08:41:15;99207.15;;;15.99;62.54
58785;BME280;44557;51.862;19.378;2023-05-02T08:43:19;99214.02;;;15.82;62.44
58785;BME280;44557;51.862;19.378;2023-05-02T08:45:22;99218.49;;;15.69;62.22
58785;BME280;44557;51.862;19.378;2023-05-02T08:47:28;99222.19;;;15.57;64.04
58785;BME280;44557;51.862;19.378;2023-05-02T08:49:33;99222.44;;;15.65;63.60
58785;BME280;44557;51.862;19.378;2023-05-02T08:51:37;99225.55;;;15.68;64.13
58785;BME280;44557;51.862;19.378;2023-05-02T08:53:40;99223.84;;;15.66;65.15
58785;BME280;44557;51.862;19.378;2023-05-02T08:55:42;99228.63;;;15.66;65.76
58785;BME280;44557;51.862;19.378;2023-05-02T08:57:43;99233.36;;;15.56;65.92
58785;BME280;44557;51.862;19.378;2023-05-02T08:59:45;99240.20;;;15.57;67.84
58785;BME280;44557;51.862;19.378;2023-05-02T09:01:54;99240.84;;;15.57;68.58
58785;BME280;44557;51.862;19.378;2023-05-02T09:03:56;99246.85;;;15.47;69.83
58785;BME280;44557;51.862;19.378;2023-05-02T09:06:10;99252.27;;;15.51;70.19
58785;BME280;44557;51.862;19.378;2023-05-02T09:08:23;99255.36;;;15.58;71.57
58785;BME280;44557;51.862;19.378;2023-05-02T09:10:27;99262.42;;;15.58;71.40
58785;BME280;44557;51.862;19.378;2023-05-02T09:12:28;99261.47;;;15.43;71.16
58785;BME280;44557;51.862;19.378;2023-05-02T09:14:30;99263.10;;;15.34;71.74
58785;BME280;44557;51.862;19.378;2023-05-02T09:16:37;99263.42;;;15.41;71.59
58785;BME280;44557;51.862;19.378;2023-05-02T09:18:42;99263.98;;;15.49;71.17
58785;BME280;44557;51.862;19.378;2023-05-02T09:20:44;99263.94;;;15.50;71.37
58785;BME280;44557;51.862;19.378;2023-05-02T09:22:50;99270.17;;;15.55;71.31
58785;BME280;44557;51.862;19.378;2023-05-02T09:24:56;99272.95;;;15.55;71.30
58785;BME280;44557;51.862;19.378;2023-05-02T09:27:02;99270.17;;;15.42;72.07
58785;BME280;44557;51.862;19.378;2023-05-02T09:29:04;99270.84;;;15.51;72.24
58785;BME280;44557;51.862;19.378;2023-05-02T09:31:08;99275.59;;;15.65;71.33
58785;BME280;44557;51.862;19.378;2023-05-02T09:33:10;99273.80;;;15.96;71.27
58785;BME280;44557;51.862;19.378;2023-05-02T09:35:12;99273.80;;;15.86;71.53
58785;BME280;44557;51.862;19.378;2023-05-02T09:37:33;99276.20;;;15.87;70.67
58785;BME280;44557;51.862;19.378;2023-05-02T09:39:35;99276.49;;;15.94;70.03
58785;BME280;44557;51.862;19.378;2023-05-02T09:41:45;99276.27;;;16.05;69.77
58785;BME280;44557;51.862;19.378;2023-05-02T09:44:09;99282.71;;;16.07;69.58
58785;BME280;44557;51.862;19.378;2023-05-02T09:46:11;99284.55;;;16.07;68.88
58785;BME280;44557;51.862;19.378;2023-05-02T09:48:14;99287.20;;;16.23;69.08
58785;BME280;44557;51.862;19.378;2023-05-02T09:52:33;99284.67;;;16.17;66.41
58785;BME280;44557;51.862;19.378;2023-05-02T09:54:35;99283.67;;;16.18;64.88
58785;BME280;44557;51.862;19.378;2023-05-02T09:56:53;99289.20;;;15.86;65.98
58785;BME280;44557;51.862;19.378;2023-05-02T09:59:13;99292.91;;;15.84;66.14
58785;BME280;44557;51.862;19.378;2023-05-02T10:01:16;99289.17;;;16.13;65.68
58785;BME280;44557;51.862;19.378;2023-05-02T10:03:18;99291.22;;;16.19;64.47
58785;BME280;44557;51.862;19.378;2023-05-02T10:05:21;99299.72;;;16.38;64.15
58785;BME280;44557;51.862;19.378;2023-05-02T10:07:24;99304.14;;;16.55;63.69
58785;BME280;44557;51.862;19.378;2023-05-02T10:09:28;99304.77;;;16.79;61.70
58785;BME280;44557;51.862;19.378;2023-05-02T10:11:33;99308.44;;;16.98;60.80
58785;BME280;44557;51.862;19.378;2023-05-02T10:13:37;99307.27;;;17.02;62.87
58785;BME280;44557;51.862;19.378;2023-05-02T10:15:43;99301.27;;;17.29;61.26
58785;BME280;44557;51.862;19.378;2023-05-02T10:17:47;99302.75;;;17.69;59.44
58785;BME280;44557;51.862;19.378;2023-05-02T10:19:59;99305.12;;;17.38;60.88
58785;BME280;44557;51.862;19.378;2023-05-02T10:22:01;99309.27;;;17.25;61.13
58785;BME280;44557;51.862;19.378;2023-05-02T10:24:04;99309.80;;;17.33;60.57
58785;BME280;44557;51.862;19.378;2023-05-02T10:26:07;99309.90;;;17.41;58.71
58785;BME280;44557;51.862;19.378;2023-05-02T10:28:09;99309.27;;;17.62;58.46
58785;BME280;44557;51.862;19.378;2023-05-02T10:30:12;99310.26;;;17.49;59.77
58785;BME280;44557;51.862;19.378;2023-05-02T10:32:17;99312.72;;;17.75;59.14
58785;BME280;44557;51.862;19.378;2023-05-02T10:34:19;99314.10;;;17.86;57.34
58785;BME280;44557;51.862;19.378;2023-05-02T10:36:22;99314.34;;;17.92;58.50
58785;BME280;44557;51.862;19.378;2023-05-02T10:38:24;99314.36;;;18.11;57.31
58785;BME280;44557;51.862;19.378;2023-05-02T10:40:26;99316.83;;;18.30;56.25
58785;BME280;44557;51.862;19.378;2023-05-02T10:42:31;99321.52;;;17.74;55.07
58785;BME280;44557;51.862;19.378;2023-05-02T10:44:38;99322.91;;;17.51;55.69
58785;BME280;44557;51.862;19.378;2023-05-02T10:46:40;99323.46;;;17.75;55.37
58785;BME280;44557;51.862;19.378;2023-05-02T10:48:41;99325.41;;;17.89;54.72
58785;BME280;44557;51.862;19.378;2023-05-02T10:50:50;99327.25;;;18.06;55.14
58785;BME280;44557;51.862;19.378;2023-05-02T10:52:52;99329.18;;;18.21;53.62
58785;BME280;44557;51.862;19.378;2023-05-02T10:55:23;99324.88;;;18.30;52.65
58785;BME280;44557;51.862;19.378;2023-05-02T10:57:28;99327.65;;;18.19;52.80
58785;BME280;44557;51.862;19.378;2023-05-02T11:01:38;99328.45;;;18.04;54.32
58785;BME280;44557;51.862;19.378;2023-05-02T11:04:06;99332.98;;;17.97;52.96